sensor_id;sensor_type;location;lat;lon;timestamp;pressure;altitude;pressure_sealevel;temperature;humidity
64200;BME280;50516;52.272;5.136;2023-03-01T00:00:54;103274.59;;;2.41;72.28
64200;BME280;50516;52.272;5.136;2023-03-01T00:03:25;103266.66;;;2.39;71.14
64200;BME280;50516;52.272;5.136;2023-03-01T00:05:50;103268.03;;;2.43;71.15
64200;BME280;50516;52.272;5.136;2023-03-01T00:08:16;103262.06;;;2.40;71.01
64200;BME280;50516;52.272;5.136;2023-03-01T00:10:41;103263.59;;;2.42;72.23
64200;BME280;50516;52.272;5.136;2023-03-01T00:13:06;103263.44;;;2.44;72.45
64200;BME280;50516;52.272;5.136;2023-03-01T00:15:32;103260.72;;;2.44;72.13
64200;BME280;50516;52.272;5.136;2023-03-01T00:17:57;103256.03;;;2.46;72.19
64200;BME280;50516;52.272;5.136;2023-03-01T00:20:23;103263.13;;;2.47;72.11
64200;BME280;50516;52.272;5.136;2023-03-01T00:22:48;103257.34;;;2.42;71.92
64200;BME280;50516;52.272;5.136;2023-03-01T00:25:14;103252.59;;;2.44;72.41
64200;BME280;50516;52.272;5.136;2023-03-01T00:27:39;103248.88;;;2.45;71.71
64200;BME280;50516;52.272;5.136;2023-03-01T00:30:05;103247.31;;;2.42;71.73
64200;BME280;50516;52.272;5.136;2023-03-01T00:32:31;103248.38;;;2.41;71.24
64200;BME280;50516;52.272;5.136;2023-03-01T00:34:56;103242.56;;;2.36;70.81
64200;BME280;50516;52.272;5.136;2023-03-01T00:37:22;103245.13;;;2.37;71.33
64200;BME280;50516;52.272;5.136;2023-03-01T00:39:48;103243.72;;;2.33;71.47
64200;BME280;50516;52.272;5.136;2023-03-01T00:42:15;103242.31;;;2.29;71.17
64200;BME280;50516;52.272;5.136;2023-03-01T00:44:41;103235.53;;;2.25;70.74
64200;BME280;50516;52.272;5.136;2023-03-01T00:47:06;103243.97;;;2.22;71.17
64200;BME280;50516;52.272;5.136;2023-03-01T00:49:31;103234.13;;;2.21;70.58
64200;BME280;50516;52.272;5.136;2023-03-01T00:51:57;103237.88;;;2.20;70.81
64200;BME280;50516;52.272;5.136;2023-03-01T00:54:22;103234.38;;;2.10;71.13
64200;BME280;50516;52.272;5.136;2023-03-01T00:56:48;103234.06;;;2.13;71.46
64200;BME280;50516;52.272;5.136;2023-03-01T00:59:13;103237.59;;;2.05;71.01
64200;BME280;50516;52.272;5.136;2023-03-01T01:01:39;103243.06;;;1.95;71.35
64200;BME280;50516;52.272;5.136;2023-03-01T01:04:07;103230.69;;;1.93;71.90
64200;BME280;50516;52.272;5.136;2023-03-01T01:06:35;103233.56;;;1.91;72.84
64200;BME280;50516;52.272;5.136;2023-03-01T01:09:03;103237.56;;;1.87;73.27
64200;BME280;50516;52.272;5.136;2023-03-01T01:11:29;103228.59;;;1.87;72.99
64200;BME280;50516;52.272;5.136;2023-03-01T01:13:56;103226.91;;;1.86;73.21
64200;BME280;50516;52.272;5.136;2023-03-01T01:16:23;103222.34;;;1.86;72.60
64200;BME280;50516;52.272;5.136;2023-03-01T01:18:49;103226.06;;;1.85;71.53
64200;BME280;50516;52.272;5.136;2023-03-01T01:21:18;103225.00;;;1.78;71.80
64200;BME280;50516;52.272;5.136;2023-03-01T01:23:45;103211.03;;;1.73;71.77
64200;BME280;50516;52.272;5.136;2023-03-01T01:26:14;103214.75;;;1.72;71.55
64200;BME280;50516;52.272;5.136;2023-03-01T01:28:39;103207.47;;;1.72;71.58
64200;BME280;50516;52.272;5.136;2023-03-01T01:31:05;103210.34;;;1.71;71.88
64200;BME280;50516;52.272;5.136;2023-03-01T01:33:32;103197.41;;;1.64;71.43
64200;BME280;50516;52.272;5.136;2023-03-01T01:35:57;103200.91;;;1.57;71.65
64200;BME280;50516;52.272;5.136;2023-03-01T01:38:23;103196.03;;;1.60;72.30
64200;BME280;50516;52.272;5.136;2023-03-01T01:40:49;103199.13;;;1.66;72.02
64200;BME280;50516;52.272;5.136;2023-03-01T01:43:24;103198.38;;;1.55;71.52
64200;BME280;50516;52.272;5.136;2023-03-01T01:46:01;103200.34;;;1.53;72.00
64200;BME280;50516;52.272;5.136;2023-03-01T01:48:41;103188.53;;;1.54;72.60
64200;BME280;50516;52.272;5.136;2023-03-01T01:51:14;103185.59;;;1.48;72.03
64200;BME280;50516;52.272;5.136;2023-03-01T01:53:41;103179.63;;;1.44;71.75
64200;BME280;50516;52.272;5.136;2023-03-01T01:56:10;103179.50;;;1.45;71.44
64200;BME280;50516;52.272;5.136;2023-03-01T01:58:37;103188.59;;;1.44;72.01
64200;BME280;50516;52.272;5.136;2023-03-01T02:01:04;103196.97;;;1.51;71.61
64200;BME280;50516;52.272;5.136;2023-03-01T02:03:31;103185.91;;;1.44;70.73
64200;BME280;50516;52.272;5.136;2023-03-01T02:06:22;103186.19;;;1.41;71.81
64200;BME280;50516;52.272;5.136;2023-03-01T02:08:55;103182.50;;;1.42;71.16
64200;BME280;50516;52.272;5.136;2023-03-01T02:11:22;103187.91;;;1.42;71.14
64200;BME280;50516;52.272;5.136;2023-03-01T02:13:48;103189.91;;;1.40;71.56
64200;BME280;50516;52.272;5.136;2023-03-01T02:16:15;103180.63;;;1.43;71.09
64200;BME280;50516;52.272;5.136;2023-03-01T02:18:42;103186.75;;;1.45;71.26
64200;BME280;50516;52.272;5.136;2023-03-01T02:23:56;103169.72;;;1.35;70.81
64200;BME280;50516;52.272;5.136;2023-03-01T02:26:48;103178.84;;;1.34;71.09
64200;BME280;50516;52.272;5.136;2023-03-01T02:29:15;103172.59;;;1.33;71.12
64200;BME280;50516;52.272;5.136;2023-03-01T02:31:40;103178.84;;;1.34;71.02
64200;BME280;50516;52.272;5.136;2023-03-01T02:34:15;103181.84;;;1.31;71.65
64200;BME280;50516;52.272;5.136;2023-03-01T02:36:54;103175.22;;;1.25;71.21
64200;BME280;50516;52.272;5.136;2023-03-01T02:39:42;103162.38;;;1.27;70.41
64200;BME280;50516;52.272;5.136;2023-03-01T02:42:13;103167.09;;;1.25;70.82
64200;BME280;50516;52.272;5.136;2023-03-01T02:44:40;103161.97;;;1.22;70.72
64200;BME280;50516;52.272;5.136;2023-03-01T02:47:05;103154.69;;;1.22;70.76
64200;BME280;50516;52.272;5.136;2023-03-01T02:49:33;103162.28;;;1.19;70.20
64200;BME280;50516;52.272;5.136;2023-03-01T02:54:57;103154.69;;;1.22;71.54
64200;BME280;50516;52.272;5.136;2023-03-01T02:57:25;103146.19;;;1.17;71.25
64200;BME280;50516;52.272;5.136;2023-03-01T02:59:56;103144.09;;;1.11;70.44
64200;BME280;50516;52.272;5.136;2023-03-01T03:02:25;103148.81;;;1.09;70.88
64200;BME280;50516;52.272;5.136;2023-03-01T03:05:15;103145.13;;;1.10;70.67
64200;BME280;50516;52.272;5.136;2023-03-01T03:07:43;103147.41;;;1.05;70.90
64200;BME280;50516;52.272;5.136;2023-03-01T03:10:24;103140.16;;;1.05;70.48
64200;BME280;50516;52.272;5.136;2023-03-01T03:12:55;103145.88;;;1.02;70.84
64200;BME280;50516;52.272;5.136;2023-03-01T03:15:22;103144.31;;;1.00;70.42
64200;BME280;50516;52.272;5.136;2023-03-01T03:17:48;103146.03;;;1.01;70.65
64200;BME280;50516;52.272;5.136;2023-03-01T03:20:17;103144.31;;;1.00;70.62
64200;BME280;50516;52.272;5.136;2023-03-01T03:22:50;103127.25;;;0.99;70.56
64200;BME280;50516;52.272;5.136;2023-03-01T03:25:18;103125.22;;;1.01;70.73
64200;BME280;50516;52.272;5.136;2023-03-01T03:27:45;103128.22;;;0.98;70.43
64200;BME280;50516;52.272;5.136;2023-03-01T03:30:14;103124.84;;;0.96;70.98
64200;BME280;50516;52.272;5.136;2023-03-01T03:32:42;103113.88;;;0.98;70.91
64200;BME280;50516;52.272;5.136;2023-03-01T03:35:18;103122.59;;;0.91;70.65
64200;BME280;50516;52.272;5.136;2023-03-01T03:37:44;103119.63;;;0.85;70.31
64200;BME280;50516;52.272;5.136;2023-03-01T03:40:29;103104.97;;;0.87;70.76
64200;BME280;50516;52.272;5.136;2023-03-01T03:42:55;103110.53;;;0.86;70.17
64200;BME280;50516;52.272;5.136;2023-03-01T03:45:21;103107.97;;;0.84;70.50
64200;BME280;50516;52.272;5.136;2023-03-01T03:47:46;103110.84;;;0.83;70.14
64200;BME280;50516;52.272;5.136;2023-03-01T03:50:13;103106.56;;;0.80;70.18
64200;BME280;50516;52.272;5.136;2023-03-01T03:52:39;103116.84;;;0.77;70.08
64200;BME280;50516;52.272;5.136;2023-03-01T03:55:05;103108.03;;;0.75;69.92
64200;BME280;50516;52.272;5.136;2023-03-01T03:57:34;103117.97;;;0.74;70.09
64200;BME280;50516;52.272;5.136;2023-03-01T04:00:00;103124.25;;;0.75;70.26
64200;BME280;50516;52.272;5.136;2023-03-01T04:02:25;103117.69;;;0.77;71.01
64200;BME280;50516;52.272;5.136;2023-03-01T04:04:51;103107.75;;;0.78;71.20
64200;BME280;50516;52.272;5.136;2023-03-01T04:07:17;103108.59;;;0.78;71.49
64200;BME280;50516;52.272;5.136;2023-03-01T04:09:43;103106.88;;;0.77;70.86
64200;BME280;50516;52.272;5.136;2023-03-01T04:12:09;103107.16;;;0.74;70.66
64200;BME280;50516;52.272;5.136;2023-03-01T04:14:34;103105.41;;;0.65;70.21
64200;BME280;50516;52.272;5.136;2023-03-01T04:17:00;103106.38;;;0.64;69.78
64200;BME280;50516;52.272;5.136;2023-03-01T04:19:26;103108.53;;;0.60;70.05
64200;BME280;50516;52.272;5.136;2023-03-01T04:21:53;103115.63;;;0.61;70.12
64200;BME280;50516;52.272;5.136;2023-03-01T04:24:18;103109.69;;;0.58;70.37
64200;BME280;50516;52.272;5.136;2023-03-01T04:26:43;103104.28;;;0.58;70.08
64200;BME280;50516;52.272;5.136;2023-03-01T04:29:09;103111.00;;;0.53;70.14
64200;BME280;50516;52.272;5.136;2023-03-01T04:31:34;103112.28;;;0.49;70.48
64200;BME280;50516;52.272;5.136;2023-03-01T04:33:59;103107.19;;;0.46;70.83
64200;BME280;50516;52.272;5.136;2023-03-01T04:36:27;103109.88;;;0.46;70.39
64200;BME280;50516;52.272;5.136;2023-03-01T04:38:54;103099.38;;;0.43;70.04
64200;BME280;50516;52.272;5.136;2023-03-01T04:41:21;103103.78;;;0.44;69.72
64200;BME280;50516;52.272;5.136;2023-03-01T04:43:47;103103.94;;;0.43;70.88
64200;BME280;50516;52.272;5.136;2023-03-01T04:46:17;103100.09;;;0.45;70.10
64200;BME280;50516;52.272;5.136;2023-03-01T04:48:43;103092.88;;;0.36;70.54
64200;BME280;50516;52.272;5.136;2023-03-01T04:51:09;103095.56;;;0.36;70.44
64200;BME280;50516;52.272;5.136;2023-03-01T04:53:38;103098.97;;;0.38;70.62
64200;BME280;50516;52.272;5.136;2023-03-01T04:56:04;103091.00;;;0.36;70.16
64200;BME280;50516;52.272;5.136;2023-03-01T04:58:30;103097.69;;;0.42;70.29
64200;BME280;50516;52.272;5.136;2023-03-01T05:00:56;103089.16;;;0.37;70.69
64200;BME280;50516;52.272;5.136;2023-03-01T05:03:21;103088.75;;;0.32;70.35
64200;BME280;50516;52.272;5.136;2023-03-01T05:05:48;103082.50;;;0.31;70.87
64200;BME280;50516;52.272;5.136;2023-03-01T05:08:14;103074.69;;;0.28;70.20
64200;BME280;50516;52.272;5.136;2023-03-01T05:10:50;103072.38;;;0.33;70.68
64200;BME280;50516;52.272;5.136;2023-03-01T05:13:16;103068.69;;;0.34;71.10
64200;BME280;50516;52.272;5.136;2023-03-01T05:15:47;103075.38;;;0.30;70.10
64200;BME280;50516;52.272;5.136;2023-03-01T05:18:14;103067.28;;;0.30;70.32
64200;BME280;50516;52.272;5.136;2023-03-01T05:20:39;103065.59;;;0.29;69.77
64200;BME280;50516;52.272;5.136;2023-03-01T05:23:05;103062.94;;;0.20;70.05
64200;BME280;50516;52.272;5.136;2023-03-01T05:25:32;103059.66;;;0.16;70.43
64200;BME280;50516;52.272;5.136;2023-03-01T05:27:59;103054.53;;;0.23;70.83
64200;BME280;50516;52.272;5.136;2023-03-01T05:30:30;103057.53;;;0.20;71.17
64200;BME280;50516;52.272;5.136;2023-03-01T05:32:55;103045.00;;;0.18;70.58
64200;BME280;50516;52.272;5.136;2023-03-01T05:35:21;103054.25;;;0.16;70.62
64200;BME280;50516;52.272;5.136;2023-03-01T05:37:48;103046.63;;;0.11;70.57
64200;BME280;50516;52.272;5.136;2023-03-01T05:40:19;103042.59;;;0.15;71.89
64200;BME280;50516;52.272;5.136;2023-03-01T05:42:49;103045.69;;;0.21;72.04
64200;BME280;50516;52.272;5.136;2023-03-01T05:45:16;103045.31;;;0.15;71.47
64200;BME280;50516;52.272;5.136;2023-03-01T05:47:43;103040.19;;;0.12;71.06
64200;BME280;50516;52.272;5.136;2023-03-01T05:50:18;103027.56;;;0.03;71.19
64200;BME280;50516;52.272;5.136;2023-03-01T05:52:49;103035.13;;;-0.01;71.02
64200;BME280;50516;52.272;5.136;2023-03-01T05:55:20;103034.69;;;0.04;71.06
64200;BME280;50516;52.272;5.136;2023-03-01T05:57:46;103027.91;;;0.00;69.99
64200;BME280;50516;52.272;5.136;2023-03-01T06:00:13;103029.88;;;-0.02;70.88
64200;BME280;50516;52.272;5.136;2023-03-01T06:02:39;103018.22;;;-0.03;70.21
64200;BME280;50516;52.272;5.136;2023-03-01T06:05:06;103024.47;;;-0.02;70.37
64200;BME280;50516;52.272;5.136;2023-03-01T06:07:32;103023.09;;;-0.06;70.63
64200;BME280;50516;52.272;5.136;2023-03-01T06:09:57;103032.19;;;-0.07;70.20
64200;BME280;50516;52.272;5.136;2023-03-01T06:12:23;103029.47;;;-0.07;70.52
64200;BME280;50516;52.272;5.136;2023-03-01T06:14:48;103023.09;;;-0.06;70.45
64200;BME280;50516;52.272;5.136;2023-03-01T06:17:14;103021.63;;;-0.01;70.55
64200;BME280;50516;52.272;5.136;2023-03-01T06:19:39;103015.97;;;-0.07;70.50
64200;BME280;50516;52.272;5.136;2023-03-01T06:22:04;103024.75;;;-0.05;70.89
64200;BME280;50516;52.272;5.136;2023-03-01T06:24:30;103026.78;;;-0.07;70.80
64200;BME280;50516;52.272;5.136;2023-03-01T06:26:55;103026.78;;;-0.07;70.19
64200;BME280;50516;52.272;5.136;2023-03-01T06:29:22;103028.94;;;-0.11;70.29
64200;BME280;50516;52.272;5.136;2023-03-01T06:31:48;103022.66;;;-0.11;70.40
64200;BME280;50516;52.272;5.136;2023-03-01T06:34:14;103029.63;;;-0.09;70.42
64200;BME280;50516;52.272;5.136;2023-03-01T06:36:39;103035.72;;;-0.07;70.26
64200;BME280;50516;52.272;5.136;2023-03-01T06:39:05;103044.69;;;-0.06;70.16
64200;BME280;50516;52.272;5.136;2023-03-01T06:41:31;103036.59;;;-0.06;70.61
64200;BME280;50516;52.272;5.136;2023-03-01T06:43:56;103034.72;;;-0.06;70.51
64200;BME280;50516;52.272;5.136;2023-03-01T06:46:22;103030.13;;;0.05;70.74
64200;BME280;50516;52.272;5.136;2023-03-01T06:48:47;103035.19;;;0.17;70.89
64200;BME280;50516;52.272;5.136;2023-03-01T06:51:12;103038.03;;;0.16;70.32
64200;BME280;50516;52.272;5.136;2023-03-01T06:53:38;103034.59;;;0.24;70.35
64200;BME280;50516;52.272;5.136;2023-03-01T06:56:03;103042.84;;;0.22;69.79
64200;BME280;50516;52.272;5.136;2023-03-01T06:58:29;103041.72;;;0.25;69.94
64200;BME280;50516;52.272;5.136;2023-03-01T07:00:54;103039.94;;;0.33;69.50
64200;BME280;50516;52.272;5.136;2023-03-01T07:03:20;103042.34;;;0.36;69.75
64200;BME280;50516;52.272;5.136;2023-03-01T07:05:45;103042.06;;;0.40;69.49
64200;BME280;50516;52.272;5.136;2023-03-01T07:08:13;103039.59;;;0.46;69.33
64200;BME280;50516;52.272;5.136;2023-03-01T07:10:38;103041.41;;;0.56;69.69
64200;BME280;50516;52.272;5.136;2023-03-01T07:13:03;103040.97;;;0.60;69.47
64200;BME280;50516;52.272;5.136;2023-03-01T07:15:31;103046.91;;;0.64;69.22
64200;BME280;50516;52.272;5.136;2023-03-01T07:17:57;103055.41;;;0.69;69.33
64200;BME280;50516;52.272;5.136;2023-03-01T07:20:23;103045.06;;;0.82;69.64
64200;BME280;50516;52.272;5.136;2023-03-01T07:22:51;103042.63;;;0.89;69.47
64200;BME280;50516;52.272;5.136;2023-03-01T07:25:17;103045.56;;;0.96;69.01
64200;BME280;50516;52.272;5.136;2023-03-01T07:27:42;103054.28;;;1.07;68.76
64200;BME280;50516;52.272;5.136;2023-03-01T07:30:08;103057.91;;;1.16;68.60
64200;BME280;50516;52.272;5.136;2023-03-01T07:32:34;103049.00;;;1.24;68.19
64200;BME280;50516;52.272;5.136;2023-03-01T07:34:59;103052.81;;;1.31;68.67
64200;BME280;50516;52.272;5.136;2023-03-01T07:37:24;103055.25;;;1.42;68.34
64200;BME280;50516;52.272;5.136;2023-03-01T07:39:50;103045.88;;;1.55;68.55
64200;BME280;50516;52.272;5.136;2023-03-01T07:42:15;103049.19;;;1.67;67.91
64200;BME280;50516;52.272;5.136;2023-03-01T07:44:41;103053.31;;;1.79;69.01
64200;BME280;50516;52.272;5.136;2023-03-01T07:47:06;103053.41;;;1.95;68.97
64200;BME280;50516;52.272;5.136;2023-03-01T07:49:31;103047.94;;;2.13;72.24
64200;BME280;50516;52.272;5.136;2023-03-01T07:51:57;103053.75;;;2.27;73.43
64200;BME280;50516;52.272;5.136;2023-03-01T07:54:22;103053.97;;;2.42;74.54
64200;BME280;50516;52.272;5.136;2023-03-01T07:56:48;103050.28;;;2.51;75.97
64200;BME280;50516;52.272;5.136;2023-03-01T07:59:13;103052.03;;;2.60;76.15
64200;BME280;50516;52.272;5.136;2023-03-01T08:01:39;103052.22;;;2.67;76.77
64200;BME280;50516;52.272;5.136;2023-03-01T08:04:04;103051.19;;;2.76;77.41
64200;BME280;50516;52.272;5.136;2023-03-01T08:06:34;103048.38;;;2.94;76.86
64200;BME280;50516;52.272;5.136;2023-03-01T08:08:59;103046.00;;;3.07;76.07
64200;BME280;50516;52.272;5.136;2023-03-01T08:11:24;103035.47;;;3.13;76.16
64200;BME280;50516;52.272;5.136;2023-03-01T08:13:50;103046.84;;;3.24;75.29
64200;BME280;50516;52.272;5.136;2023-03-01T08:16:15;103048.38;;;3.35;75.30
64200;BME280;50516;52.272;5.136;2023-03-01T08:18:42;103051.78;;;3.45;75.11
64200;BME280;50516;52.272;5.136;2023-03-01T08:21:13;103042.09;;;3.51;75.21
64200;BME280;50516;52.272;5.136;2023-03-01T08:23:39;103042.59;;;3.63;74.97
64200;BME280;50516;52.272;5.136;2023-03-01T08:26:11;103044.97;;;3.66;74.90
64200;BME280;50516;52.272;5.136;2023-03-01T08:28:37;103047.00;;;3.72;75.76
64200;BME280;50516;52.272;5.136;2023-03-01T08:31:12;103043.59;;;3.78;75.20
64200;BME280;50516;52.272;5.136;2023-03-01T08:33:37;103037.47;;;3.84;74.93
64200;BME280;50516;52.272;5.136;2023-03-01T08:36:05;103042.19;;;3.91;75.06
64200;BME280;50516;52.272;5.136;2023-03-01T08:38:32;103045.75;;;3.99;74.70
64200;BME280;50516;52.272;5.136;2023-03-01T08:41:00;103035.88;;;4.07;74.90
64200;BME280;50516;52.272;5.136;2023-03-01T08:43:25;103031.97;;;4.09;74.21
64200;BME280;50516;52.272;5.136;2023-03-01T08:45:51;103036.69;;;4.15;73.51
64200;BME280;50516;52.272;5.136;2023-03-01T08:48:16;103034.81;;;4.16;73.34
64200;BME280;50516;52.272;5.136;2023-03-01T08:50:41;103036.16;;;4.28;72.52
64200;BME280;50516;52.272;5.136;2023-03-01T08:53:07;103035.94;;;4.38;71.66
64200;BME280;50516;52.272;5.136;2023-03-01T08:55:32;103026.38;;;4.42;70.87
64200;BME280;50516;52.272;5.136;2023-03-01T08:57:57;103026.38;;;4.42;70.38
64200;BME280;50516;52.272;5.136;2023-03-01T09:00:24;103018.59;;;4.31;69.95
64200;BME280;50516;52.272;5.136;2023-03-01T09:02:50;103014.31;;;4.45;68.93
64200;BME280;50516;52.272;5.136;2023-03-01T09:05:15;103017.59;;;4.63;69.15
64200;BME280;50516;52.272;5.136;2023-03-01T09:07:40;103016.41;;;4.66;68.92
64200;BME280;50516;52.272;5.136;2023-03-01T09:10:06;103012.31;;;4.62;68.85
64200;BME280;50516;52.272;5.136;2023-03-01T09:12:32;103019.38;;;4.79;68.08
64200;BME280;50516;52.272;5.136;2023-03-01T09:14:57;103012.66;;;4.90;68.00
64200;BME280;50516;52.272;5.136;2023-03-01T09:17:22;103009.69;;;5.00;67.68
64200;BME280;50516;52.272;5.136;2023-03-01T09:19:48;102999.09;;;5.05;67.14
64200;BME280;50516;52.272;5.136;2023-03-01T09:22:14;102997.28;;;4.97;65.97
64200;BME280;50516;52.272;5.136;2023-03-01T09:24:39;102986.94;;;4.92;64.29
64200;BME280;50516;52.272;5.136;2023-03-01T09:27:05;102995.25;;;4.99;63.15
64200;BME280;50516;52.272;5.136;2023-03-01T09:29:35;102996.69;;;5.10;63.27
64200;BME280;50516;52.272;5.136;2023-03-01T09:32:00;102985.78;;;5.10;63.15
64200;BME280;50516;52.272;5.136;2023-03-01T09:34:25;102984.69;;;5.19;63.00
64200;BME280;50516;52.272;5.136;2023-03-01T09:36:51;102980.84;;;5.14;62.87
64200;BME280;50516;52.272;5.136;2023-03-01T09:39:17;102982.34;;;5.16;63.21
64200;BME280;50516;52.272;5.136;2023-03-01T09:42:03;102984.69;;;5.19;63.06
64200;BME280;50516;52.272;5.136;2023-03-01T09:44:49;102985.41;;;5.13;63.23
64200;BME280;50516;52.272;5.136;2023-03-01T09:47:19;102987.31;;;5.12;63.27
64200;BME280;50516;52.272;5.136;2023-03-01T09:49:57;102989.84;;;5.14;63.23
64200;BME280;50516;52.272;5.136;2023-03-01T09:54:54;102990.97;;;5.20;62.78
64200;BME280;50516;52.272;5.136;2023-03-01T10:00:28;102995.44;;;5.36;61.88
64200;BME280;50516;52.272;5.136;2023-03-01T10:03:12;102977.28;;;5.28;61.17
64200;BME280;50516;52.272;5.136;2023-03-01T10:05:47;102986.06;;;5.38;60.71
64200;BME280;50516;52.272;5.136;2023-03-01T10:10:49;102989.63;;;5.39;60.02
64200;BME280;50516;52.272;5.136;2023-03-01T10:13:28;102988.22;;;5.43;59.41
64200;BME280;50516;52.272;5.136;2023-03-01T10:15:59;102975.53;;;5.50;59.14
64200;BME280;50516;52.272;5.136;2023-03-01T10:18:29;102978.63;;;5.47;58.49
64200;BME280;50516;52.272;5.136;2023-03-01T10:23:27;102977.53;;;5.56;59.29
64200;BME280;50516;52.272;5.136;2023-03-01T10:31:20;102973.13;;;5.70;57.71
64200;BME280;50516;52.272;5.136;2023-03-01T10:33:53;102960.72;;;5.67;57.44
64200;BME280;50516;52.272;5.136;2023-03-01T10:36:20;102952.25;;;5.77;57.35
64200;BME280;50516;52.272;5.136;2023-03-01T10:38:54;102950.38;;;5.78;56.70
64200;BME280;50516;52.272;5.136;2023-03-01T10:41:21;102953.59;;;5.81;56.49
64200;BME280;50516;52.272;5.136;2023-03-01T10:46:36;102957.31;;;5.95;56.65
64200;BME280;50516;52.272;5.136;2023-03-01T10:49:17;102948.41;;;5.87;55.79
64200;BME280;50516;52.272;5.136;2023-03-01T10:51:45;102955.09;;;5.99;56.05
64200;BME280;50516;52.272;5.136;2023-03-01T10:54:28;102935.69;;;6.09;55.49
64200;BME280;50516;52.272;5.136;2023-03-01T10:56:59;102928.66;;;6.14;54.64
64200;BME280;50516;52.272;5.136;2023-03-01T10:59:34;102927.31;;;6.25;53.61
64200;BME280;50516;52.272;5.136;2023-03-01T11:02:08;102926.94;;;6.13;53.59
64200;BME280;50516;52.272;5.136;2023-03-01T11:04:40;102933.88;;;6.31;53.54
64200;BME280;50516;52.272;5.136;2023-03-01T11:07:20;102919.66;;;6.35;52.44
64200;BME280;50516;52.272;5.136;2023-03-01T11:09:46;102913.38;;;6.35;52.44
64200;BME280;50516;52.272;5.136;2023-03-01T11:12:14;102912.03;;;6.31;52.71
64200;BME280;50516;52.272;5.136;2023-03-01T11:14:47;102915.72;;;6.23;52.98
64200;BME280;50516;52.272;5.136;2023-03-01T11:17:24;102904.16;;;6.21;52.57
64200;BME280;50516;52.272;5.136;2023-03-01T11:20:19;102907.41;;;6.31;52.59
64200;BME280;50516;52.272;5.136;2023-03-01T11:22:53;102900.38;;;6.37;53.07
64200;BME280;50516;52.272;5.136;2023-03-01T11:25:24;102904.47;;;6.48;52.73
64200;BME280;50516;52.272;5.136;2023-03-01T11:27:50;102898.22;;;6.54;52.92
64200;BME280;50516;52.272;5.136;2023-03-01T11:30:24;102892.22;;;6.65;53.04
64200;BME280;50516;52.272;5.136;2023-03-01T11:35:28;102894.31;;;6.42;50.82
64200;BME280;50516;52.272;5.136;2023-03-01T11:38:03;102884.75;;;6.31;50.75
64200;BME280;50516;52.272;5.136;2023-03-01T11:40:40;102880.81;;;6.33;51.29
64200;BME280;50516;52.272;5.136;2023-03-01T11:43:28;102869.50;;;6.58;50.77
64200;BME280;50516;52.272;5.136;2023-03-01T11:56:46;102863.75;;;6.74;51.38
64200;BME280;50516;52.272;5.136;2023-03-01T11:59:37;102857.72;;;6.79;51.37
64200;BME280;50516;52.272;5.136;2023-03-01T12:14:03;102852.63;;;6.98;49.49
64200;BME280;50516;52.272;5.136;2023-03-01T12:22:59;102840.81;;;6.97;48.83
64200;BME280;50516;52.272;5.136;2023-03-01T12:25:20;102845.50;;;7.03;48.51
64200;BME280;50516;52.272;5.136;2023-03-01T12:28:09;102841.19;;;6.87;48.05
64200;BME280;50516;52.272;5.136;2023-03-01T12:44:39;102832.88;;;7.02;49.52
64200;BME280;50516;52.272;5.136;2023-03-01T12:47:26;102837.47;;;6.95;49.47
64200;BME280;50516;52.272;5.136;2023-03-01T12:50:02;102833.69;;;6.96;49.48
64200;BME280;50516;52.272;5.136;2023-03-01T12:52:54;102830.78;;;6.98;49.48
64200;BME280;50516;52.272;5.136;2023-03-01T12:55:37;102826.06;;;6.85;49.20
64200;BME280;50516;52.272;5.136;2023-03-01T13:00:54;102820.91;;;7.03;49.94
64200;BME280;50516;52.272;5.136;2023-03-01T13:03:36;102821.66;;;7.19;49.80
64200;BME280;50516;52.272;5.136;2023-03-01T13:06:17;102820.38;;;7.15;48.95
64200;BME280;50516;52.272;5.136;2023-03-01T13:11:22;102804.69;;;7.30;49.28
64200;BME280;50516;52.272;5.136;2023-03-01T13:13:48;102797.94;;;7.26;49.12
64200;BME280;50516;52.272;5.136;2023-03-01T13:16:22;102802.28;;;7.13;49.08
64200;BME280;50516;52.272;5.136;2023-03-01T13:21:46;102782.66;;;7.38;48.22
64200;BME280;50516;52.272;5.136;2023-03-01T13:24:40;102787.25;;;7.38;48.64
64200;BME280;50516;52.272;5.136;2023-03-01T13:29:51;102774.47;;;7.38;49.32
64200;BME280;50516;52.272;5.136;2023-03-01T13:34:53;102767.31;;;7.37;48.15
64200;BME280;50516;52.272;5.136;2023-03-01T13:37:22;102765.75;;;7.21;48.26
64200;BME280;50516;52.272;5.136;2023-03-01T13:39:48;102760.97;;;7.30;48.82
64200;BME280;50516;52.272;5.136;2023-03-01T13:42:38;102757.88;;;7.40;48.76
64200;BME280;50516;52.272;5.136;2023-03-01T13:45:14;102752.78;;;7.30;48.39
64200;BME280;50516;52.272;5.136;2023-03-01T13:47:42;102743.28;;;7.26;48.42
64200;BME280;50516;52.272;5.136;2023-03-01T13:50:16;102750.13;;;7.08;48.67
64200;BME280;50516;52.272;5.136;2023-03-01T13:52:44;102740.94;;;7.16;48.27
64200;BME280;50516;52.272;5.136;2023-03-01T13:55:19;102734.69;;;7.29;48.85
64200;BME280;50516;52.272;5.136;2023-03-01T13:57:49;102746.13;;;7.53;48.72
64200;BME280;50516;52.272;5.136;2023-03-01T14:03:20;102724.69;;;7.49;48.18
64200;BME280;50516;52.272;5.136;2023-03-01T14:08:34;102726.72;;;7.34;47.91
64200;BME280;50516;52.272;5.136;2023-03-01T14:19:43;102702.72;;;7.29;48.70
64200;BME280;50516;52.272;5.136;2023-03-01T14:22:26;102701.88;;;7.22;49.02
64200;BME280;50516;52.272;5.136;2023-03-01T14:25:01;102694.28;;;7.18;49.40
64200;BME280;50516;52.272;5.136;2023-03-01T14:27:36;102682.19;;;7.40;49.46
64200;BME280;50516;52.272;5.136;2023-03-01T14:30:12;102664.06;;;7.32;48.81
64200;BME280;50516;52.272;5.136;2023-03-01T14:32:39;102675.66;;;7.41;49.01
64200;BME280;50516;52.272;5.136;2023-03-01T14:35:20;102670.41;;;7.46;48.75
64200;BME280;50516;52.272;5.136;2023-03-01T14:37:46;102674.81;;;7.47;48.05
64200;BME280;50516;52.272;5.136;2023-03-01T14:40:22;102671.06;;;7.48;48.11
64200;BME280;50516;52.272;5.136;2023-03-01T14:42:49;102668.09;;;7.43;47.29
64200;BME280;50516;52.272;5.136;2023-03-01T14:45:14;102672.75;;;7.49;47.71
64200;BME280;50516;52.272;5.136;2023-03-01T14:47:40;102658.19;;;7.36;46.86